Time;durP1;ratioP1;P1;durP2;ratioP2;P2;SDS_P1;SDS_P2;PMS_P1;PMS_P2;Temp;Humidity;BMP_temperature;BMP_pressure;BME280_temperature;BME280_humidity;BME280_pressure;Samples;Min_cycle;Max_cycle;Signal;HPM_P1;HPM_P2
2023/05/31 00:03:21;;;;;;;3.78;1.58;;;;;;;-147.53;100.00;57128.34;10338327;28;20057;-84
2023/05/31 00:08:23;;;;;;;1.85;0.95;;;;;;;-147.53;100.00;57128.34;10338071;28;20078;-84
2023/05/31 00:13:25;;;;;;;4.80;1.10;;;;;;;-147.53;100.00;57128.34;10346626;28;20133;-82
2023/05/31 00:18:26;;;;;;;3.95;1.58;;;;;;;-147.53;100.00;57128.34;10343398;28;20053;-84
2023/05/31 00:23:28;;;;;;;3.45;1.90;;;;;;;-147.53;100.00;57128.34;10351910;28;20080;-83
2023/05/31 00:28:30;;;;;;;3.00;1.30;;;;;;;-147.53;100.00;57128.34;10351003;28;20058;-83
2023/05/31 00:33:33;;;;;;;1.17;0.80;;;;;;;-147.53;100.00;57128.34;10324118;28;20137;-85
2023/05/31 00:38:35;;;;;;;3.38;1.42;;;;;;;-147.53;100.00;57128.34;10349065;28;20609;-83
2023/05/31 00:43:37;;;;;;;2.92;1.42;;;;;;;-147.53;100.00;57128.34;10323261;28;20046;-82
2023/05/31 00:48:42;;;;;;;2.08;1.17;;;;;;;-147.53;100.00;57128.34;10350770;28;20116;-83
2023/05/31 00:53:44;;;;;;;8.55;1.70;;;;;;;-147.53;100.00;57128.34;10325918;28;20164;-83
2023/05/31 00:58:46;;;;;;;2.83;1.30;;;;;;;-147.53;100.00;57128.34;10320330;28;20057;-83
2023/05/31 01:03:48;;;;;;;3.40;1.30;;;;;;;-147.53;100.00;57128.34;10315846;28;20058;-83
2023/05/31 01:08:51;;;;;;;3.10;1.27;;;;;;;-147.53;100.00;57128.34;10324616;28;20061;-83
2023/05/31 01:14:04;;;;;;;4.28;2.22;;;;;;;-147.53;100.00;57128.34;10342032;28;20096;-83
2023/05/31 01:19:15;;;;;;;3.53;1.15;;;;;;;-147.53;100.00;57128.34;10318657;28;20093;-82
2023/05/31 01:24:27;;;;;;;2.83;0.98;;;;;;;-147.53;100.00;57128.34;10349887;28;20105;-83
2023/05/31 01:29:30;;;;;;;3.13;1.38;;;;;;;-147.53;100.00;57128.34;10347036;28;20428;-82
2023/05/31 01:34:31;;;;;;;3.30;1.58;;;;;;;-147.53;100.00;57128.34;10349447;28;20054;-84
2023/05/31 01:39:34;;;;;;;4.13;1.48;;;;;;;-147.53;100.00;57128.34;10327029;28;20077;-82
2023/05/31 01:44:38;;;;;;;2.95;1.08;;;;;;;-147.53;100.00;57128.34;10321363;28;20050;-83
2023/05/31 01:49:41;;;;;;;4.15;1.25;;;;;;;-147.53;100.00;57128.34;10345417;28;20058;-82
2023/05/31 01:54:43;;;;;;;6.65;1.48;;;;;;;-147.53;100.00;57128.34;10319819;28;20052;-83
2023/05/31 01:59:46;;;;;;;2.42;1.33;;;;;;;-147.53;100.00;57128.34;10323677;28;20101;-82
2023/05/31 02:04:48;;;;;;;3.42;1.27;;;;;;;-147.53;100.00;57128.34;10345243;28;20170;-82
2023/05/31 02:09:50;;;;;;;4.72;1.67;;;;;;;-147.53;100.00;57128.34;10321022;28;20050;-82
2023/05/31 02:14:53;;;;;;;3.35;1.27;;;;;;;-147.53;100.00;57128.34;10343062;28;20046;-83
2023/05/31 02:19:55;;;;;;;2.35;1.02;;;;;;;-147.53;100.00;57128.34;10354698;28;20523;-82
2023/05/31 02:24:57;;;;;;;1.55;0.85;;;;;;;-147.53;100.00;57128.34;10354651;28;20050;-83
2023/05/31 02:29:59;;;;;;;2.30;1.10;;;;;;;-147.53;100.00;57128.34;10349122;28;20579;-82
2023/05/31 02:35:02;;;;;;;4.05;1.45;;;;;;;-147.53;100.00;57128.34;10313745;28;20560;-83
2023/05/31 02:40:08;;;;;;;2.65;1.23;;;;;;;-147.53;100.00;57128.34;10331977;28;20412;-82
2023/05/31 02:45:10;;;;;;;3.75;1.50;;;;;;;-147.53;100.00;57128.34;10355490;28;20060;-83
2023/05/31 02:50:13;;;;;;;2.25;0.88;;;;;;;-147.53;100.00;57128.34;10316696;28;20058;-83
2023/05/31 02:55:25;;;;;;;3.83;1.77;;;;;;;-147.53;100.00;57128.34;10325352;28;20065;-82
2023/05/31 03:00:47;;;;;;;2.78;1.65;;;;;;;-147.53;100.00;57128.34;10349922;28;20080;-82
2023/05/31 03:05:48;;;;;;;3.70;1.55;;;;;;;-147.53;100.00;57128.34;10349860;28;20080;-82
2023/05/31 03:10:51;;;;;;;2.05;0.90;;;;;;;-147.53;100.00;57128.34;10324887;28;20041;-83
2023/05/31 03:15:52;;;;;;;1.25;0.60;;;;;;;-147.53;100.00;57128.34;10312145;28;20443;-82
2023/05/31 03:20:55;;;;;;;4.15;2.00;;;;;;;-147.53;100.00;57128.34;10331466;28;20046;-82
2023/05/31 03:25:58;;;;;;;2.60;1.23;;;;;;;-147.53;100.00;57128.34;10323122;28;20459;-83
2023/05/31 03:31:00;;;;;;;2.72;1.30;;;;;;;-147.53;100.00;57128.34;10322009;28;20046;-83
2023/05/31 03:36:03;;;;;;;2.53;1.08;;;;;;;-147.53;100.00;57128.34;10339533;28;20085;-84
2023/05/31 03:41:05;;;;;;;2.80;1.15;;;;;;;-147.53;100.00;57128.34;10322601;28;20046;-83
2023/05/31 03:46:07;;;;;;;2.25;1.40;;;;;;;-147.53;100.00;57128.34;10351468;28;20776;-82
2023/05/31 03:51:08;;;;;;;1.67;0.98;;;;;;;-147.53;100.00;57128.34;10346675;28;20073;-83
2023/05/31 03:56:10;;;;;;;2.97;1.58;;;;;;;-147.53;100.00;57128.34;10349455;28;20081;-83
2023/05/31 04:01:12;;;;;;;4.70;1.17;;;;;;;-147.53;100.00;57128.34;10349197;28;20050;-84
2023/05/31 04:06:14;;;;;;;1.92;0.75;;;;;;;-147.53;100.00;57128.34;10322595;28;20050;-83
2023/05/31 04:11:16;;;;;;;1.88;0.80;;;;;;;-147.53;100.00;57128.34;10319356;28;20054;-84
2023/05/31 04:16:17;;;;;;;4.30;1.42;;;;;;;-147.53;100.00;57128.34;10349497;28;20155;-83
2023/05/31 04:21:20;;;;;;;2.10;1.00;;;;;;;-147.53;100.00;57128.34;10321943;28;20054;-83
2023/05/31 04:26:22;;;;;;;3.58;1.80;;;;;;;-147.53;100.00;57128.34;10339152;28;20049;-84
2023/05/31 04:31:24;;;;;;;2.03;0.93;;;;;;;-147.53;100.00;57128.34;10323803;28;20134;-83
2023/05/31 04:36:44;;;;;;;3.88;1.25;;;;;;;-147.53;100.00;57128.34;10354795;28;20143;-83
2023/05/31 04:41:46;;;;;;;2.22;1.23;;;;;;;-147.53;100.00;57128.34;10338099;28;20108;-87
2023/05/31 04:46:49;;;;;;;3.92;1.52;;;;;;;-147.53;100.00;57128.34;10323432;28;20549;-83
2023/05/31 04:51:50;;;;;;;2.65;1.38;;;;;;;-147.53;100.00;57128.34;10317985;28;20050;-83
2023/05/31 04:56:52;;;;;;;2.17;1.08;;;;;;;-147.53;100.00;57128.34;10317141;28;20145;-83
2023/05/31 05:01:54;;;;;;;4.60;2.17;;;;;;;-147.53;100.00;57128.34;10331078;28;20092;-83
2023/05/31 05:06:56;;;;;;;4.90;1.63;;;;;;;-147.53;100.00;57128.34;10329752;28;20052;-83
2023/05/31 05:11:58;;;;;;;2.72;1.23;;;;;;;-147.53;100.00;57128.34;10361835;28;20061;-83
2023/05/31 05:17:00;;;;;;;2.83;1.60;;;;;;;-147.53;100.00;57128.34;10341842;28;20093;-84
2023/05/31 05:22:01;;;;;;;5.57;1.75;;;;;;;-147.53;100.00;57128.34;10313916;28;20081;-84
2023/05/31 05:27:04;;;;;;;3.85;1.52;;;;;;;-147.53;100.00;57128.34;10330160;28;20057;-84
2023/05/31 05:32:07;;;;;;;2.75;1.02;;;;;;;-147.53;100.00;57128.34;10328410;28;20077;-85
2023/05/31 05:37:09;;;;;;;5.25;2.08;;;;;;;-147.53;100.00;57128.34;10344995;28;20401;-84
2023/05/31 05:42:12;;;;;;;1.25;1.00;;;;;;;-147.53;100.00;57128.34;10359552;28;20065;-83
2023/05/31 05:47:13;;;;;;;4.03;1.48;;;;;;;-147.53;100.00;57128.34;10357068;28;20072;-83
2023/05/31 05:52:15;;;;;;;2.22;1.33;;;;;;;-147.53;100.00;57128.34;10318521;28;20050;-83
2023/05/31 05:57:17;;;;;;;6.10;1.70;;;;;;;-147.53;100.00;57128.34;10328564;28;20053;-84
2023/05/31 06:02:21;;;;;;;2.95;1.38;;;;;;;-147.53;100.00;57128.34;10317361;28;20037;-87
2023/05/31 06:07:25;;;;;;;3.38;1.35;;;;;;;-147.53;100.00;57128.34;10326373;28;20069;-88
2023/05/31 06:12:27;;;;;;;5.20;1.52;;;;;;;-147.53;100.00;57128.34;10310309;28;20149;-88
2023/05/31 06:17:29;;;;;;;4.15;1.65;;;;;;;-147.53;100.00;57128.34;10309489;28;20042;-88
2023/05/31 06:22:35;;;;;;;4.43;1.92;;;;;;;-147.53;100.00;57128.34;10327388;28;20057;-88
2023/05/31 06:27:45;;;;;;;6.65;2.20;;;;;;;-147.53;100.00;57128.34;10352950;28;20039;-89
2023/05/31 06:32:47;;;;;;;3.60;1.67;;;;;;;-147.53;100.00;57128.34;10312104;28;20133;-88
2023/05/31 06:37:58;;;;;;;7.65;2.33;;;;;;;-147.53;100.00;57128.34;10291722;28;20165;-88
2023/05/31 06:43:00;;;;;;;6.82;2.22;;;;;;;-147.53;100.00;57128.34;10316280;28;20045;-89
2023/05/31 06:48:14;;;;;;;4.72;1.75;;;;;;;-147.53;100.00;57128.34;10308409;28;20049;-90
2023/05/31 06:53:51;;;;;;;2.85;1.30;;;;;;;-147.53;100.00;57128.34;10333896;28;20500;-90
2023/05/31 06:59:13;;;;;;;3.40;1.85;;;;;;;-147.53;100.00;57128.34;10321513;28;20235;-89
2023/05/31 07:04:16;;;;;;;4.75;1.38;;;;;;;-147.53;100.00;57128.34;10302125;28;20042;-90
2023/05/31 07:09:18;;;;;;;3.28;0.68;;;;;;;-147.53;100.00;57128.34;10317704;28;20109;-89
2023/05/31 07:14:31;;;;;;;3.58;1.10;;;;;;;-147.53;100.00;57128.34;10308230;28;20078;-92
2023/05/31 07:19:45;;;;;;;1.20;0.80;;;;;;;-147.53;100.00;57128.34;10305664;28;20512;-89
2023/05/31 07:24:59;;;;;;;7.38;0.90;;;;;;;-147.53;100.00;57128.34;10309415;28;20530;-92
2023/05/31 07:30:13;;;;;;;5.95;1.50;;;;;;;-147.53;100.00;57128.34;10317553;28;20057;-94
2023/05/31 07:35:27;;;;;;;1.73;0.80;;;;;;;-147.53;100.00;57128.34;10322683;28;20053;-90
2023/05/31 07:40:40;;;;;;;8.55;1.20;;;;;;;-147.53;100.00;57128.34;10327869;28;20057;-89
2023/05/31 07:45:42;;;;;;;2.92;1.13;;;;;;;-147.53;100.00;57128.34;10323963;28;20057;-89
2023/05/31 07:56:15;;;;;;;2.65;1.02;;;;;;;-147.53;100.00;57128.34;11965265;23;20053;-88
2023/05/31 08:01:41;;;;;;;4.95;1.17;;;;;;;-147.53;100.00;57128.34;10293192;28;20732;-88
2023/05/31 08:06:54;;;;;;;6.15;0.95;;;;;;;-147.53;100.00;57128.34;10299684;28;20131;-88
2023/05/31 08:12:08;;;;;;;2.30;1.33;;;;;;;-147.53;100.00;57128.34;10335283;28;20164;-88
2023/05/31 08:17:10;;;;;;;4.90;1.30;;;;;;;-147.53;100.00;57128.34;10356856;28;20060;-89
2023/05/31 08:22:12;;;;;;;3.42;1.17;;;;;;;-147.53;100.00;57128.34;10359644;28;20443;-88
2023/05/31 08:27:14;;;;;;;3.25;1.20;;;;;;;-147.53;100.00;57128.34;10328954;28;20085;-89
2023/05/31 08:32:33;;;;;;;4.85;1.23;;;;;;;-147.53;100.00;57128.34;10348069;28;20045;-89
2023/05/31 08:38:29;;;;;;;3.30;1.15;;;;;;;-147.53;100.00;57128.34;10340874;28;20066;-87
2023/05/31 10:06:36;;;;;;;3.63;1.00;;;;;;;-147.53;100.00;57128.34;11497616;24;20750;-89
2023/05/31 10:11:55;;;;;;;2.92;1.08;;;;;;;-147.53;100.00;57128.34;9973799;29;20066;-90
2023/05/31 10:17:20;;;;;;;3.97;1.10;;;;;;;-147.53;100.00;57128.34;9985498;29;20058;-88
2023/05/31 10:22:24;;;;;;;3.85;1.20;;;;;;;-147.53;100.00;57128.34;9986670;29;20058;-85
2023/05/31 10:27:31;;;;;;;4.20;1.33;;;;;;;-147.53;100.00;57128.34;9983244;29;20057;-86
2023/05/31 10:32:37;;;;;;;6.22;1.58;;;;;;;-147.53;100.00;57128.34;10008285;29;20062;-85
2023/05/31 10:37:43;;;;;;;5.57;1.60;;;;;;;-147.53;100.00;57128.34;9990822;29;20061;-85
2023/05/31 10:43:00;;;;;;;5.05;1.35;;;;;;;-147.53;100.00;57128.34;9991740;29;20046;-85
2023/05/31 10:48:26;;;;;;;4.35;1.20;;;;;;;-147.53;100.00;57128.34;9983114;29;20095;-85
2023/05/31 10:54:00;;;;;;;5.65;1.50;;;;;;;-147.53;100.00;57128.34;10032390;29;20037;-85
2023/05/31 10:59:03;;;;;;;3.22;1.42;;;;;;;-147.53;100.00;57128.34;10034337;29;20137;-86
2023/05/31 11:04:21;;;;;;;4.55;1.58;;;;;;;-147.53;100.00;57128.34;10029300;29;20658;-85
2023/05/31 11:09:23;;;;;;;3.00;1.40;;;;;;;-147.53;100.00;57128.34;10045574;29;20451;-85
2023/05/31 11:14:28;;;;;;;4.28;1.83;;;;;;;-147.53;100.00;57128.34;10045557;29;20052;-86
2023/05/31 11:19:38;;;;;;;2.95;1.50;;;;;;;-147.53;100.00;57128.34;10045320;29;20064;-86
2023/05/31 11:24:49;;;;;;;5.93;1.95;;;;;;;-147.53;100.00;57128.34;10045253;29;20042;-85
2023/05/31 11:29:51;;;;;;;3.53;1.52;;;;;;;-147.53;100.00;57128.34;10044762;29;20053;-85
2023/05/31 11:35:17;;;;;;;4.72;1.92;;;;;;;-147.53;100.00;57128.34;10027811;29;20054;-85
2023/05/31 11:40:19;;;;;;;3.38;1.58;;;;;;;-147.53;100.00;57128.34;10027945;29;20068;-84
2023/05/31 11:45:22;;;;;;;5.65;1.73;;;;;;;-147.53;100.00;57128.34;10044431;29;20160;-84
2023/05/31 11:50:24;;;;;;;4.10;1.90;;;;;;;-147.53;100.00;57128.34;10043652;29;20512;-85
2023/05/31 11:55:32;;;;;;;5.68;1.85;;;;;;;-147.53;100.00;57128.34;10026773;29;20516;-85
2023/05/31 12:00:34;;;;;;;6.00;1.70;;;;;;;-147.53;100.00;57128.34;10044732;29;20049;-85
2023/05/31 12:05:36;;;;;;;2.75;1.30;;;;;;;-147.53;100.00;57128.34;10045627;29;20069;-85
2023/05/31 12:10:39;;;;;;;4.32;1.40;;;;;;;-147.53;100.00;57128.34;10055007;29;20109;-85
2023/05/31 12:15:41;;;;;;;4.93;1.63;;;;;;;-147.53;100.00;57128.34;10035446;29;20046;-85
2023/05/31 12:20:43;;;;;;;3.58;1.10;;;;;;;-147.53;100.00;57128.34;10051496;29;20065;-85
2023/05/31 12:25:48;;;;;;;2.83;0.95;;;;;;;-147.53;100.00;57128.34;10060221;29;20049;-85
2023/05/31 12:30:51;;;;;;;2.10;0.93;;;;;;;-147.53;100.00;57128.34;10051565;29;20057;-84
2023/05/31 12:35:53;;;;;;;4.63;1.13;;;;;;;-147.53;100.00;57128.34;10036333;29;20456;-86
2023/05/31 12:40:55;;;;;;;1.63;0.95;;;;;;;-147.53;100.00;57128.34;10050122;29;20145;-85
2023/05/31 12:46:00;;;;;;;3.15;1.00;;;;;;;-147.53;100.00;57128.34;10034641;29;20058;-85
2023/05/31 12:51:04;;;;;;;2.38;1.17;;;;;;;-147.53;100.00;57128.34;10052086;29;20064;-87
2023/05/31 12:56:05;;;;;;;5.93;1.25;;;;;;;-147.53;100.00;57128.34;10036317;29;20080;-87
2023/05/31 13:01:07;;;;;;;3.13;1.13;;;;;;;-147.53;100.00;57128.34;10036449;29;20346;-87
2023/05/31 13:06:09;;;;;;;6.20;1.45;;;;;;;-147.53;100.00;57128.34;10035420;29;20085;-87
2023/05/31 13:11:11;;;;;;;7.85;1.85;;;;;;;-147.53;100.00;57128.34;10050103;29;20106;-85
2023/05/31 13:16:13;;;;;;;4.93;1.20;;;;;;;-147.53;100.00;57128.34;10050657;29;20068;-85
2023/05/31 13:21:15;;;;;;;2.95;0.88;;;;;;;-147.53;100.00;57128.34;10051906;29;20067;-85
2023/05/31 13:26:17;;;;;;;2.30;1.08;;;;;;;-147.53;100.00;57128.34;10053606;29;20128;-85
2023/05/31 13:31:20;;;;;;;2.72;0.88;;;;;;;-147.53;100.00;57128.34;10035055;29;20064;-85
2023/05/31 13:36:25;;;;;;;2.33;1.10;;;;;;;-147.53;100.00;57128.34;10034815;29;20151;-85
2023/05/31 13:41:27;;;;;;;4.40;1.05;;;;;;;-147.53;100.00;57128.34;10049417;29;20082;-85
2023/05/31 13:46:29;;;;;;;1.65;0.90;;;;;;;-147.53;100.00;57128.34;10051317;29;20083;-85
2023/05/31 13:51:30;;;;;;;6.30;0.98;;;;;;;-147.53;100.00;57128.34;10031569;29;20069;-86
2023/05/31 13:56:32;;;;;;;4.25;1.23;;;;;;;-147.53;100.00;57128.34;10048143;29;20061;-85
2023/05/31 14:01:34;;;;;;;3.50;1.00;;;;;;;-147.53;100.00;57128.34;10031775;29;20106;-85
2023/05/31 14:06:35;;;;;;;1.45;0.85;;;;;;;-147.53;100.00;57128.34;10048378;29;20049;-85
2023/05/31 14:11:37;;;;;;;1.48;0.82;;;;;;;-147.53;100.00;57128.34;10030478;29;20096;-86
2023/05/31 14:16:39;;;;;;;2.50;0.77;;;;;;;-147.53;100.00;57128.34;10047195;29;20081;-85
2023/05/31 14:21:41;;;;;;;2.55;0.75;;;;;;;-147.53;100.00;57128.34;10046398;29;20053;-85
2023/05/31 14:26:44;;;;;;;2.00;0.90;;;;;;;-147.53;100.00;57128.34;10047028;29;20054;-85
2023/05/31 14:31:46;;;;;;;5.68;1.00;;;;;;;-147.53;100.00;57128.34;10044824;29;20661;-85
2023/05/31 14:36:47;;;;;;;1.45;0.70;;;;;;;-147.53;100.00;57128.34;10045936;29;20094;-86
2023/05/31 14:41:50;;;;;;;1.90;0.77;;;;;;;-147.53;100.00;57128.34;10046354;29;20051;-85
2023/05/31 14:46:56;;;;;;;7.28;1.20;;;;;;;-147.53;100.00;57128.34;10048214;29;20106;-85
2023/05/31 14:51:57;;;;;;;2.70;1.05;;;;;;;-147.53;100.00;57128.34;10028230;29;20622;-85
2023/05/31 14:56:59;;;;;;;5.15;1.00;;;;;;;-147.53;100.00;57128.34;10045978;29;20068;-85
2023/05/31 15:02:01;;;;;;;3.42;1.17;;;;;;;-147.53;100.00;57128.34;10045563;29;20050;-86
2023/05/31 15:07:03;;;;;;;2.65;0.90;;;;;;;-147.53;100.00;57128.34;10029499;29;20057;-86
2023/05/31 15:12:06;;;;;;;6.03;1.40;;;;;;;-147.53;100.00;57128.34;10040178;29;20065;-86
2023/05/31 15:17:08;;;;;;;3.63;1.30;;;;;;;-147.53;100.00;57128.34;10018291;29;20082;-86
2023/05/31 15:22:10;;;;;;;5.28;1.10;;;;;;;-147.53;100.00;57128.34;10034967;29;20069;-84
2023/05/31 15:27:12;;;;;;;5.50;1.65;;;;;;;-147.53;100.00;57128.34;10027498;29;20144;-85
2023/05/31 15:32:14;;;;;;;4.63;1.50;;;;;;;-147.53;100.00;57128.34;10043590;29;20067;-85
2023/05/31 15:37:16;;;;;;;5.53;1.90;;;;;;;-147.53;100.00;57128.34;10044264;29;20057;-85
2023/05/31 15:42:17;;;;;;;6.97;2.10;;;;;;;-147.53;100.00;57128.34;10045039;29;20072;-85
2023/05/31 15:47:19;;;;;;;4.28;1.92;;;;;;;-147.53;100.00;57128.34;10045901;29;20057;-87
2023/05/31 15:52:21;;;;;;;5.55;1.52;;;;;;;-147.53;100.00;57128.34;10028124;29;20070;-84
2023/05/31 15:57:23;;;;;;;5.82;1.83;;;;;;;-147.53;100.00;57128.34;10028454;29;20136;-85
2023/05/31 16:02:24;;;;;;;4.18;1.42;;;;;;;-147.53;100.00;57128.34;10044198;29;20085;-83
2023/05/31 16:07:27;;;;;;;4.40;1.70;;;;;;;-147.53;100.00;57128.34;10044875;29;20110;-84
2023/05/31 16:12:29;;;;;;;4.30;1.70;;;;;;;-147.53;100.00;57128.34;10043666;29;20061;-83
2023/05/31 16:17:30;;;;;;;8.05;1.85;;;;;;;-147.53;100.00;57128.34;10048746;29;20081;-81
2023/05/31 16:22:32;;;;;;;13.45;2.35;;;;;;;-147.53;100.00;57128.34;10035881;29;20063;-80
2023/05/31 16:27:34;;;;;;;5.35;1.77;;;;;;;-147.53;100.00;57128.34;10054777;29;20049;-82
2023/05/31 16:32:36;;;;;;;9.13;2.08;;;;;;;-147.53;100.00;57128.34;10040669;29;20053;-82
2023/05/31 16:37:38;;;;;;;3.72;2.03;;;;;;;-147.53;100.00;57128.34;10032867;29;20461;-81
2023/05/31 16:42:40;;;;;;;3.15;1.67;;;;;;;-147.53;100.00;57128.34;10058127;29;20053;-81
2023/05/31 16:47:45;;;;;;;6.88;2.13;;;;;;;-147.53;100.00;57128.34;10053038;29;20580;-82
2023/05/31 16:52:51;;;;;;;5.68;2.17;;;;;;;-147.53;100.00;57128.34;10039758;29;20137;-83
2023/05/31 16:57:53;;;;;;;7.95;2.65;;;;;;;-147.53;100.00;57128.34;10064724;29;20057;-83
2023/05/31 17:02:55;;;;;;;8.25;1.90;;;;;;;-147.53;100.00;57128.34;10059419;29;20477;-83
2023/05/31 17:07:56;;;;;;;5.85;2.10;;;;;;;-147.53;100.00;57128.34;10047236;29;20061;-84
2023/05/31 17:12:58;;;;;;;4.22;1.75;;;;;;;-147.53;100.00;57128.34;10061913;29;20068;-83
2023/05/31 17:18:00;;;;;;;5.25;2.08;;;;;;;-147.53;100.00;57128.34;10061718;29;20073;-84
2023/05/31 17:23:01;;;;;;;7.85;2.35;;;;;;;-147.53;100.00;57128.34;10058478;29;20580;-84
2023/05/31 17:28:03;;;;;;;5.20;2.05;;;;;;;-147.53;100.00;57128.34;10044503;29;20050;-83
2023/05/31 17:33:05;;;;;;;5.65;1.95;;;;;;;-147.53;100.00;57128.34;10059110;29;20114;-84
2023/05/31 17:38:07;;;;;;;4.72;1.90;;;;;;;-147.53;100.00;57128.34;10044040;29;20053;-83
2023/05/31 17:43:08;;;;;;;5.45;1.90;;;;;;;-147.53;100.00;57128.34;10061323;29;20081;-83
2023/05/31 17:48:10;;;;;;;5.55;2.13;;;;;;;-147.53;100.00;57128.34;10040064;29;20409;-85
2023/05/31 17:53:12;;;;;;;5.30;1.77;;;;;;;-147.53;100.00;57128.34;10082914;29;20508;-84
2023/05/31 17:58:17;;;;;;;6.43;1.90;;;;;;;-147.53;100.00;57128.34;10083712;29;20073;-83
2023/05/31 18:03:20;;;;;;;4.72;1.83;;;;;;;-147.53;100.00;57128.34;10079098;29;20085;-84
2023/05/31 18:08:22;;;;;;;4.22;1.80;;;;;;;-147.53;100.00;57128.34;10045305;29;20069;-84
2023/05/31 18:13:23;;;;;;;11.48;1.63;;;;;;;-147.53;100.00;57128.34;10077465;29;20057;-84
2023/05/31 18:18:26;;;;;;;5.65;1.63;;;;;;;-147.53;100.00;57128.34;10053156;29;20077;-86
2023/05/31 18:23:31;;;;;;;2.10;1.08;;;;;;;-147.53;100.00;57128.34;10038700;29;20045;-84
2023/05/31 18:28:33;;;;;;;2.58;1.25;;;;;;;-147.53;100.00;57128.34;10054152;29;20060;-85
2023/05/31 18:33:35;;;;;;;5.10;1.52;;;;;;;-147.53;100.00;57128.34;10070879;29;20049;-84
2023/05/31 18:38:44;;;;;;;2.60;1.23;;;;;;;-147.53;100.00;57128.34;10071075;29;20066;-84
2023/05/31 18:43:46;;;;;;;3.20;1.13;;;;;;;-147.53;100.00;57128.34;10070223;29;20083;-84
2023/05/31 18:48:51;;;;;;;5.13;1.10;;;;;;;-147.53;100.00;57128.34;10053840;29;20602;-84
2023/05/31 18:53:53;;;;;;;1.33;0.80;;;;;;;-147.53;100.00;57128.34;10053705;29;20081;-85
2023/05/31 18:58:55;;;;;;;1.70;0.70;;;;;;;-147.53;100.00;57128.34;10052404;29;20045;-84
2023/05/31 19:04:08;;;;;;;;;;;;;;;;;;;;;
2023/05/31 19:09:10;;;;;;;1.15;0.70;;;;;;;-147.53;100.00;57128.34;10023617;29;20061;-83
2023/05/31 19:14:17;;;;;;;2.35;1.33;;;;;;;-147.53;100.00;57128.34;10068254;29;20057;-84
2023/05/31 19:19:19;;;;;;;1.83;1.02;;;;;;;-147.53;100.00;57128.34;10067204;29;20088;-84
2023/05/31 19:24:21;;;;;;;4.25;1.50;;;;;;;-147.53;100.00;57128.34;10066532;29;20054;-83
2023/05/31 19:29:22;;;;;;;2.20;1.38;;;;;;;-147.53;100.00;57128.34;10065332;29;20143;-84
2023/05/31 19:34:24;;;;;;;1.90;1.02;;;;;;;-147.53;100.00;57128.34;10047623;29;20076;-85
2023/05/31 19:39:26;;;;;;;0.88;0.68;;;;;;;-147.53;100.00;57128.34;10064811;29;20081;-85
2023/05/31 19:44:27;;;;;;;2.47;1.23;;;;;;;-147.53;100.00;57128.34;10047280;29;20061;-84
2023/05/31 19:49:29;;;;;;;2.00;1.05;;;;;;;-147.53;100.00;57128.34;10062853;29;20049;-84
2023/05/31 19:54:32;;;;;;;1.58;1.10;;;;;;;-147.53;100.00;57128.34;10047311;29;20050;-84
2023/05/31 19:59:33;;;;;;;2.00;0.80;;;;;;;-147.53;100.00;57128.34;10045718;29;20042;-86
2023/05/31 20:04:35;;;;;;;4.32;1.80;;;;;;;-147.53;100.00;57128.34;10062445;29;20606;-83
2023/05/31 20:09:37;;;;;;;2.78;0.98;;;;;;;-147.53;100.00;57128.34;10061617;29;20085;-86
2023/05/31 20:14:38;;;;;;;1.67;0.90;;;;;;;-147.53;100.00;57128.34;10047013;29;20090;-86
2023/05/31 20:19:40;;;;;;;3.45;1.08;;;;;;;-147.53;100.00;57128.34;10059029;29;20049;-84
2023/05/31 20:24:43;;;;;;;2.85;1.00;;;;;;;-147.53;100.00;57128.34;10043100;29;20073;-85
2023/05/31 20:29:45;;;;;;;0.32;0.32;;;;;;;-147.53;100.00;57128.34;10067948;29;20049;-86
2023/05/31 20:34:47;;;;;;;1.00;0.70;;;;;;;-147.53;100.00;57128.34;10068001;29;20045;-84
2023/05/31 20:39:49;;;;;;;1.45;0.88;;;;;;;-147.53;100.00;57128.34;10038962;29;20644;-87
2023/05/31 20:44:50;;;;;;;0.65;0.63;;;;;;;-147.53;100.00;57128.34;10070477;29;20053;-84
2023/05/31 20:49:52;;;;;;;2.35;1.20;;;;;;;-147.53;100.00;57128.34;10068260;29;20049;-85
2023/05/31 20:54:54;;;;;;;3.05;0.85;;;;;;;-147.53;100.00;57128.34;10069177;29;20042;-84
2023/05/31 20:59:56;;;;;;;2.45;1.15;;;;;;;-147.53;100.00;57128.34;10066545;29;20079;-86
2023/05/31 21:04:58;;;;;;;1.30;0.95;;;;;;;-147.53;100.00;57128.34;10065701;29;20069;-86
2023/05/31 21:10:00;;;;;;;0.52;0.50;;;;;;;-147.53;100.00;57128.34;10066198;29;20542;-85
2023/05/31 21:15:03;;;;;;;1.48;0.80;;;;;;;-147.53;100.00;57128.34;10049363;29;20057;-86
2023/05/31 21:20:05;;;;;;;0.75;0.65;;;;;;;-147.53;100.00;57128.34;10066924;29;20136;-85
2023/05/31 21:25:07;;;;;;;3.53;1.30;;;;;;;-147.53;100.00;57128.34;10061062;29;20049;-87
2023/05/31 21:30:09;;;;;;;4.55;1.45;;;;;;;-147.53;100.00;57128.34;10066192;29;20080;-85
2023/05/31 21:35:10;;;;;;;1.00;0.85;;;;;;;-147.53;100.00;57128.34;10049259;29;20057;-85
2023/05/31 21:40:12;;;;;;;1.25;0.75;;;;;;;-147.53;100.00;57128.34;10066342;29;20068;-83
2023/05/31 21:45:14;;;;;;;1.92;1.00;;;;;;;-147.53;100.00;57128.34;10066405;29;20097;-84
2023/05/31 21:50:15;;;;;;;0.52;0.47;;;;;;;-147.53;100.00;57128.34;10067484;29;20058;-82
2023/05/31 21:55:17;;;;;;;1.88;1.05;;;;;;;-147.53;100.00;57128.34;10051722;29;20600;-82
2023/05/31 22:00:19;;;;;;;1.58;1.13;;;;;;;-147.53;100.00;57128.34;10048693;29;20678;-81
2023/05/31 22:05:20;;;;;;;1.65;1.00;;;;;;;-147.53;100.00;57128.34;10051959;29;20106;-83
2023/05/31 22:10:22;;;;;;;2.38;1.10;;;;;;;-147.53;100.00;57128.34;10052610;29;20070;-82
2023/05/31 22:15:25;;;;;;;3.15;1.90;;;;;;;-147.53;100.00;57128.34;10065715;29;20755;-82
2023/05/31 22:20:27;;;;;;;5.30;1.55;;;;;;;-147.53;100.00;57128.34;10064599;29;20072;-82
2023/05/31 22:25:29;;;;;;;4.47;1.08;;;;;;;-147.53;100.00;57128.34;10035746;29;20070;-83
2023/05/31 22:30:30;;;;;;;2.00;1.10;;;;;;;-147.53;100.00;57128.34;10047616;29;20061;-82
2023/05/31 22:35:32;;;;;;;1.55;0.98;;;;;;;-147.53;100.00;57128.34;10065174;29;20087;-82
2023/05/31 22:40:34;;;;;;;2.88;1.25;;;;;;;-147.53;100.00;57128.34;10059995;29;20068;-84
2023/05/31 22:45:35;;;;;;;3.35;1.58;;;;;;;-147.53;100.00;57128.34;10062614;29;20057;-83
2023/05/31 22:50:40;;;;;;;2.33;1.00;;;;;;;-147.53;100.00;57128.34;10063819;29;20065;-83
2023/05/31 22:55:42;;;;;;;4.93;1.40;;;;;;;-147.53;100.00;57128.34;10031237;29;20329;-82
2023/05/31 23:00:44;;;;;;;3.47;1.65;;;;;;;-147.53;100.00;57128.34;10060959;29;20114;-84
2023/05/31 23:05:45;;;;;;;4.78;1.45;;;;;;;-147.53;100.00;57128.34;10045237;29;20198;-83
2023/05/31 23:10:48;;;;;;;2.40;1.10;;;;;;;-147.53;100.00;57128.34;10045657;29;20083;-83
2023/05/31 23:15:49;;;;;;;4.90;1.25;;;;;;;-147.53;100.00;57128.34;10043554;29;20199;-84
2023/05/31 23:20:52;;;;;;;1.95;1.33;;;;;;;-147.53;100.00;57128.34;10043031;29;20053;-82
2023/05/31 23:25:54;;;;;;;3.00;1.15;;;;;;;-147.53;100.00;57128.34;10058833;29;20061;-82
2023/05/31 23:30:56;;;;;;;2.70;1.50;;;;;;;-147.53;100.00;57128.34;10058422;29;20132;-86
2023/05/31 23:35:58;;;;;;;5.55;1.30;;;;;;;-147.53;100.00;57128.34;10043176;29;20057;-83
2023/05/31 23:40:59;;;;;;;1.60;1.00;;;;;;;-147.53;100.00;57128.34;10060909;29;20068;-84
2023/05/31 23:46:01;;;;;;;2.08;0.80;;;;;;;-147.53;100.00;57128.34;10044747;29;20049;-84
2023/05/31 23:51:03;;;;;;;2.58;1.38;;;;;;;-147.53;100.00;57128.34;10042200;29;20168;-86
2023/05/31 23:56:05;;;;;;;13.73;2.10;;;;;;;-147.53;100.00;57128.34;10045748;29;20073;-84
